sensor_id;sensor_type;location;lat;lon;timestamp;temperature;humidity
21271;DHT22;10795;50.796;3.860;2024-03-23T00:53:46;7.80;99.90
21271;DHT22;10795;50.796;3.860;2024-03-23T00:56:12;7.90;99.90
21271;DHT22;10795;50.796;3.860;2024-03-23T00:58:38;7.90;99.90
21271;DHT22;10795;50.796;3.860;2024-03-23T01:01:04;8.00;99.90
21271;DHT22;10795;50.796;3.860;2024-03-23T01:03:30;8.10;99.90
21271;DHT22;10795;50.796;3.860;2024-03-23T01:06:02;8.20;99.90
21271;DHT22;10795;50.796;3.860;2024-03-23T01:08:28;8.40;99.90
21271;DHT22;10795;50.796;3.860;2024-03-23T01:10:58;8.30;99.90
21271;DHT22;10795;50.796;3.860;2024-03-23T01:13:29;8.40;99.90
21271;DHT22;10795;50.796;3.860;2024-03-23T01:15:55;8.20;99.90
21271;DHT22;10795;50.796;3.860;2024-03-23T01:18:24;8.00;99.90
21271;DHT22;10795;50.796;3.860;2024-03-23T01:20:52;8.00;99.90
21271;DHT22;10795;50.796;3.860;2024-03-23T01:23:17;8.00;99.90
21271;DHT22;10795;50.796;3.860;2024-03-23T01:25:43;8.10;99.90
21271;DHT22;10795;50.796;3.860;2024-03-23T01:28:11;8.00;99.90
21271;DHT22;10795;50.796;3.860;2024-03-23T01:30:37;8.00;99.90
21271;DHT22;10795;50.796;3.860;2024-03-23T01:33:05;7.90;99.90
21271;DHT22;10795;50.796;3.860;2024-03-23T01:35:33;8.10;99.90
21271;DHT22;10795;50.796;3.860;2024-03-23T01:38:01;8.40;99.90
21271;DHT22;10795;50.796;3.860;2024-03-23T01:40:29;8.30;99.90
21271;DHT22;10795;50.796;3.860;2024-03-23T01:42:58;8.40;99.90
21271;DHT22;10795;50.796;3.860;2024-03-23T01:45:27;8.40;99.90
21271;DHT22;10795;50.796;3.860;2024-03-23T01:47:53;8.20;99.90
21271;DHT22;10795;50.796;3.860;2024-03-23T01:50:21;8.10;99.90
21271;DHT22;10795;50.796;3.860;2024-03-23T01:52:48;8.00;99.90
21271;DHT22;10795;50.796;3.860;2024-03-23T01:55:17;8.00;99.90
21271;DHT22;10795;50.796;3.860;2024-03-23T01:57:47;8.10;99.90
21271;DHT22;10795;50.796;3.860;2024-03-23T02:00:13;8.10;99.90
21271;DHT22;10795;50.796;3.860;2024-03-23T02:02:44;7.90;99.90
21271;DHT22;10795;50.796;3.860;2024-03-23T02:05:14;8.00;99.90
21271;DHT22;10795;50.796;3.860;2024-03-23T02:07:43;8.10;99.90
21271;DHT22;10795;50.796;3.860;2024-03-23T02:10:13;7.90;99.90
21271;DHT22;10795;50.796;3.860;2024-03-23T02:12:40;7.70;99.90
21271;DHT22;10795;50.796;3.860;2024-03-23T02:15:13;7.80;99.90
21271;DHT22;10795;50.796;3.860;2024-03-23T02:17:41;8.10;99.90
21271;DHT22;10795;50.796;3.860;2024-03-23T02:20:07;8.10;99.90
21271;DHT22;10795;50.796;3.860;2024-03-23T02:22:39;8.00;99.90
21271;DHT22;10795;50.796;3.860;2024-03-23T02:25:08;7.90;99.90
21271;DHT22;10795;50.796;3.860;2024-03-23T02:27:36;7.70;99.90
21271;DHT22;10795;50.796;3.860;2024-03-23T02:30:04;7.70;99.90
21271;DHT22;10795;50.796;3.860;2024-03-23T02:32:35;7.60;99.90
21271;DHT22;10795;50.796;3.860;2024-03-23T02:35:06;7.70;99.90
21271;DHT22;10795;50.796;3.860;2024-03-23T02:37:37;7.80;99.90
21271;DHT22;10795;50.796;3.860;2024-03-23T02:40:03;8.00;99.90
21271;DHT22;10795;50.796;3.860;2024-03-23T02:42:31;8.00;99.90
21271;DHT22;10795;50.796;3.860;2024-03-23T02:44:59;8.00;99.90
21271;DHT22;10795;50.796;3.860;2024-03-23T02:47:28;8.00;99.90
21271;DHT22;10795;50.796;3.860;2024-03-23T02:49:54;7.90;99.90
21271;DHT22;10795;50.796;3.860;2024-03-23T02:52:24;7.80;99.90
21271;DHT22;10795;50.796;3.860;2024-03-23T02:54:50;7.80;99.90
21271;DHT22;10795;50.796;3.860;2024-03-23T02:57:18;7.70;99.90
21271;DHT22;10795;50.796;3.860;2024-03-23T02:59:46;7.70;99.90
21271;DHT22;10795;50.796;3.860;2024-03-23T03:02:13;7.90;99.90
21271;DHT22;10795;50.796;3.860;2024-03-23T03:04:39;7.90;99.90
21271;DHT22;10795;50.796;3.860;2024-03-23T03:07:07;7.90;99.90
21271;DHT22;10795;50.796;3.860;2024-03-23T03:09:33;7.90;99.90
21271;DHT22;10795;50.796;3.860;2024-03-23T03:12:02;8.00;99.90
21271;DHT22;10795;50.796;3.860;2024-03-23T03:14:28;8.00;99.90
21271;DHT22;10795;50.796;3.860;2024-03-23T03:16:54;8.10;99.90
21271;DHT22;10795;50.796;3.860;2024-03-23T03:19:23;8.00;99.90
21271;DHT22;10795;50.796;3.860;2024-03-23T03:21:49;8.10;99.90
21271;DHT22;10795;50.796;3.860;2024-03-23T03:24:15;8.00;99.90
21271;DHT22;10795;50.796;3.860;2024-03-23T03:26:43;8.00;99.90
21271;DHT22;10795;50.796;3.860;2024-03-23T03:29:11;7.90;99.90
21271;DHT22;10795;50.796;3.860;2024-03-23T03:31:39;7.90;99.90
21271;DHT22;10795;50.796;3.860;2024-03-23T03:34:05;7.80;99.90
21271;DHT22;10795;50.796;3.860;2024-03-23T03:36:33;7.90;99.90
21271;DHT22;10795;50.796;3.860;2024-03-23T03:38:59;7.80;99.90
21271;DHT22;10795;50.796;3.860;2024-03-23T03:41:25;7.90;99.90
21271;DHT22;10795;50.796;3.860;2024-03-23T03:43:50;7.80;99.90
21271;DHT22;10795;50.796;3.860;2024-03-23T03:46:19;7.80;99.90
21271;DHT22;10795;50.796;3.860;2024-03-23T03:48:47;7.70;99.90
21271;DHT22;10795;50.796;3.860;2024-03-23T03:51:17;7.70;99.90
21271;DHT22;10795;50.796;3.860;2024-03-23T03:53:43;7.70;99.90
21271;DHT22;10795;50.796;3.860;2024-03-23T03:56:09;7.60;99.90
21271;DHT22;10795;50.796;3.860;2024-03-23T03:58:40;7.60;99.90
21271;DHT22;10795;50.796;3.860;2024-03-23T04:01:06;7.70;99.90
21271;DHT22;10795;50.796;3.860;2024-03-23T04:03:32;7.60;99.90
21271;DHT22;10795;50.796;3.860;2024-03-23T04:05:57;7.70;99.90
21271;DHT22;10795;50.796;3.860;2024-03-23T04:08:25;7.60;99.90
21271;DHT22;10795;50.796;3.860;2024-03-23T04:10:51;7.80;99.90
21271;DHT22;10795;50.796;3.860;2024-03-23T04:13:22;7.80;99.90
21271;DHT22;10795;50.796;3.860;2024-03-23T04:15:57;7.90;99.90
21271;DHT22;10795;50.796;3.860;2024-03-23T04:18:22;7.90;99.90
21271;DHT22;10795;50.796;3.860;2024-03-23T04:20:49;7.90;99.90
21271;DHT22;10795;50.796;3.860;2024-03-23T04:23:15;7.80;99.90
21271;DHT22;10795;50.796;3.860;2024-03-23T04:25:44;8.10;99.90
21271;DHT22;10795;50.796;3.860;2024-03-23T04:28:11;8.20;99.90
21271;DHT22;10795;50.796;3.860;2024-03-23T04:30:40;7.90;99.90
21271;DHT22;10795;50.796;3.860;2024-03-23T04:33:05;7.60;99.90
21271;DHT22;10795;50.796;3.860;2024-03-23T04:35:31;7.70;99.90
21271;DHT22;10795;50.796;3.860;2024-03-23T04:37:57;7.60;99.90
21271;DHT22;10795;50.796;3.860;2024-03-23T04:40:26;7.60;99.90
21271;DHT22;10795;50.796;3.860;2024-03-23T04:42:54;7.70;99.90
21271;DHT22;10795;50.796;3.860;2024-03-23T04:45:20;7.50;99.90
21271;DHT22;10795;50.796;3.860;2024-03-23T04:47:45;7.40;99.90
21271;DHT22;10795;50.796;3.860;2024-03-23T04:50:14;7.40;99.90
21271;DHT22;10795;50.796;3.860;2024-03-23T04:52:42;7.30;99.90
21271;DHT22;10795;50.796;3.860;2024-03-23T04:55:09;7.40;99.90
21271;DHT22;10795;50.796;3.860;2024-03-23T04:57:34;7.70;99.90
21271;DHT22;10795;50.796;3.860;2024-03-23T05:00:00;7.70;99.90
21271;DHT22;10795;50.796;3.860;2024-03-23T05:02:32;8.00;99.90
21271;DHT22;10795;50.796;3.860;2024-03-23T05:05:00;8.00;99.90
21271;DHT22;10795;50.796;3.860;2024-03-23T05:07:25;7.80;99.90
21271;DHT22;10795;50.796;3.860;2024-03-23T05:09:51;8.20;99.90
21271;DHT22;10795;50.796;3.860;2024-03-23T05:12:18;7.90;99.90
21271;DHT22;10795;50.796;3.860;2024-03-23T05:14:43;7.80;99.90
21271;DHT22;10795;50.796;3.860;2024-03-23T05:17:10;7.50;99.90
21271;DHT22;10795;50.796;3.860;2024-03-23T05:19:41;7.40;99.90
21271;DHT22;10795;50.796;3.860;2024-03-23T05:22:06;7.50;99.90
21271;DHT22;10795;50.796;3.860;2024-03-23T05:24:34;7.70;99.90
21271;DHT22;10795;50.796;3.860;2024-03-23T05:27:02;7.40;99.90
21271;DHT22;10795;50.796;3.860;2024-03-23T05:29:30;7.40;99.90
21271;DHT22;10795;50.796;3.860;2024-03-23T05:31:56;7.30;99.90
21271;DHT22;10795;50.796;3.860;2024-03-23T05:34:27;7.60;99.90
21271;DHT22;10795;50.796;3.860;2024-03-23T05:36:54;7.50;99.90
21271;DHT22;10795;50.796;3.860;2024-03-23T05:39:20;7.60;99.90
21271;DHT22;10795;50.796;3.860;2024-03-23T05:41:49;7.50;99.90
21271;DHT22;10795;50.796;3.860;2024-03-23T05:44:15;7.00;99.90
21271;DHT22;10795;50.796;3.860;2024-03-23T05:46:43;7.30;99.90
21271;DHT22;10795;50.796;3.860;2024-03-23T05:49:16;7.40;99.90
21271;DHT22;10795;50.796;3.860;2024-03-23T05:51:45;7.20;99.90
21271;DHT22;10795;50.796;3.860;2024-03-23T05:54:14;7.30;99.90
21271;DHT22;10795;50.796;3.860;2024-03-23T05:56:40;7.50;99.90
21271;DHT22;10795;50.796;3.860;2024-03-23T05:59:08;7.20;99.90
21271;DHT22;10795;50.796;3.860;2024-03-23T06:01:34;7.10;99.90
21271;DHT22;10795;50.796;3.860;2024-03-23T06:04:06;7.20;99.90
21271;DHT22;10795;50.796;3.860;2024-03-23T06:06:34;7.00;99.90
21271;DHT22;10795;50.796;3.860;2024-03-23T06:09:05;6.90;99.90
21271;DHT22;10795;50.796;3.860;2024-03-23T06:11:31;7.00;99.90
21271;DHT22;10795;50.796;3.860;2024-03-23T06:13:57;7.10;99.90
21271;DHT22;10795;50.796;3.860;2024-03-23T06:16:23;6.90;99.90
21271;DHT22;10795;50.796;3.860;2024-03-23T06:18:53;6.90;99.90
21271;DHT22;10795;50.796;3.860;2024-03-23T06:21:20;7.20;99.90
21271;DHT22;10795;50.796;3.860;2024-03-23T06:23:51;7.10;99.90
21271;DHT22;10795;50.796;3.860;2024-03-23T06:26:20;7.20;99.90
21271;DHT22;10795;50.796;3.860;2024-03-23T06:28:47;7.10;99.90
21271;DHT22;10795;50.796;3.860;2024-03-23T06:31:13;7.10;99.90
21271;DHT22;10795;50.796;3.860;2024-03-23T06:33:41;7.20;99.90
21271;DHT22;10795;50.796;3.860;2024-03-23T06:36:09;7.10;99.90
21271;DHT22;10795;50.796;3.860;2024-03-23T06:38:38;7.30;99.90
21271;DHT22;10795;50.796;3.860;2024-03-23T06:41:08;7.40;99.90
21271;DHT22;10795;50.796;3.860;2024-03-23T06:43:34;7.60;99.90
21271;DHT22;10795;50.796;3.860;2024-03-23T06:46:03;7.50;99.90
21271;DHT22;10795;50.796;3.860;2024-03-23T06:48:30;7.50;99.90
21271;DHT22;10795;50.796;3.860;2024-03-23T06:50:58;7.50;99.90
21271;DHT22;10795;50.796;3.860;2024-03-23T06:53:24;7.40;99.90
21271;DHT22;10795;50.796;3.860;2024-03-23T06:55:51;7.40;99.90
21271;DHT22;10795;50.796;3.860;2024-03-23T06:58:20;7.30;99.90
21271;DHT22;10795;50.796;3.860;2024-03-23T07:00:48;7.50;99.90
21271;DHT22;10795;50.796;3.860;2024-03-23T07:03:20;7.60;99.90
21271;DHT22;10795;50.796;3.860;2024-03-23T07:05:51;7.30;99.90
21271;DHT22;10795;50.796;3.860;2024-03-23T07:08:17;7.70;99.90
21271;DHT22;10795;50.796;3.860;2024-03-23T07:10:47;7.70;99.90
21271;DHT22;10795;50.796;3.860;2024-03-23T07:13:13;7.80;99.90
21271;DHT22;10795;50.796;3.860;2024-03-23T07:15:39;8.00;99.90
21271;DHT22;10795;50.796;3.860;2024-03-23T07:18:05;8.20;99.90
21271;DHT22;10795;50.796;3.860;2024-03-23T07:20:31;8.60;99.90
21271;DHT22;10795;50.796;3.860;2024-03-23T07:22:59;8.80;99.90
21271;DHT22;10795;50.796;3.860;2024-03-23T07:25:27;8.80;99.90
21271;DHT22;10795;50.796;3.860;2024-03-23T07:27:54;8.90;99.90
21271;DHT22;10795;50.796;3.860;2024-03-23T07:30:20;9.00;99.90
21271;DHT22;10795;50.796;3.860;2024-03-23T07:32:50;9.20;99.90
21271;DHT22;10795;50.796;3.860;2024-03-23T07:35:20;9.60;99.90
21271;DHT22;10795;50.796;3.860;2024-03-23T07:37:46;10.00;99.90
21271;DHT22;10795;50.796;3.860;2024-03-23T07:40:12;9.90;99.90
21271;DHT22;10795;50.796;3.860;2024-03-23T07:42:41;9.70;99.90
21271;DHT22;10795;50.796;3.860;2024-03-23T07:45:07;9.60;99.90
21271;DHT22;10795;50.796;3.860;2024-03-23T07:47:33;10.00;99.90
21271;DHT22;10795;50.796;3.860;2024-03-23T07:49:58;10.40;99.90
21271;DHT22;10795;50.796;3.860;2024-03-23T07:52:29;10.60;99.90
21271;DHT22;10795;50.796;3.860;2024-03-23T07:54:57;10.10;99.90
21271;DHT22;10795;50.796;3.860;2024-03-23T07:57:25;10.40;99.90
21271;DHT22;10795;50.796;3.860;2024-03-23T07:59:56;9.80;99.90
21271;DHT22;10795;50.796;3.860;2024-03-23T08:02:24;10.20;99.90
21271;DHT22;10795;50.796;3.860;2024-03-23T08:04:52;10.20;99.90
21271;DHT22;10795;50.796;3.860;2024-03-23T08:07:20;11.00;99.90
21271;DHT22;10795;50.796;3.860;2024-03-23T08:09:48;10.70;99.90
21271;DHT22;10795;50.796;3.860;2024-03-23T08:12:19;10.50;99.90
21271;DHT22;10795;50.796;3.860;2024-03-23T08:14:47;11.00;99.90
21271;DHT22;10795;50.796;3.860;2024-03-23T08:17:18;11.30;99.90
21271;DHT22;10795;50.796;3.860;2024-03-23T08:19:43;11.50;99.90
21271;DHT22;10795;50.796;3.860;2024-03-23T08:22:11;12.10;99.90
21271;DHT22;10795;50.796;3.860;2024-03-23T08:24:37;11.80;99.90
21271;DHT22;10795;50.796;3.860;2024-03-23T08:27:05;12.20;99.90
21271;DHT22;10795;50.796;3.860;2024-03-23T08:29:33;12.00;99.90
21271;DHT22;10795;50.796;3.860;2024-03-23T08:32:01;11.80;99.90
21271;DHT22;10795;50.796;3.860;2024-03-23T08:34:32;11.60;99.90
21271;DHT22;10795;50.796;3.860;2024-03-23T08:37:02;12.10;99.90
21271;DHT22;10795;50.796;3.860;2024-03-23T08:39:28;11.90;99.90
21271;DHT22;10795;50.796;3.860;2024-03-23T08:41:56;12.80;99.90
21271;DHT22;10795;50.796;3.860;2024-03-23T08:44:22;12.90;99.90
21271;DHT22;10795;50.796;3.860;2024-03-23T08:46:50;12.80;91.30
21271;DHT22;10795;50.796;3.860;2024-03-23T08:49:17;13.30;99.90
21271;DHT22;10795;50.796;3.860;2024-03-23T08:51:46;12.20;99.90
21271;DHT22;10795;50.796;3.860;2024-03-23T08:54:12;12.80;99.90
21271;DHT22;10795;50.796;3.860;2024-03-23T08:56:40;12.70;99.90
21271;DHT22;10795;50.796;3.860;2024-03-23T08:59:05;12.40;99.90
21271;DHT22;10795;50.796;3.860;2024-03-23T09:01:38;13.10;99.90
21271;DHT22;10795;50.796;3.860;2024-03-23T09:04:06;13.00;99.90
21271;DHT22;10795;50.796;3.860;2024-03-23T09:06:34;12.70;99.90
21271;DHT22;10795;50.796;3.860;2024-03-23T09:08:59;13.30;99.90
21271;DHT22;10795;50.796;3.860;2024-03-23T09:11:28;13.40;46.10
21271;DHT22;10795;50.796;3.860;2024-03-23T09:13:54;13.50;99.90
21271;DHT22;10795;50.796;3.860;2024-03-23T09:16:20;13.00;68.60
21271;DHT22;10795;50.796;3.860;2024-03-23T09:18:48;12.50;98.90
21271;DHT22;10795;50.796;3.860;2024-03-23T09:21:14;13.60;99.90
21271;DHT22;10795;50.796;3.860;2024-03-23T09:23:43;13.60;17.10
21271;DHT22;10795;50.796;3.860;2024-03-23T09:26:11;13.20;99.90
21271;DHT22;10795;50.796;3.860;2024-03-23T09:28:39;11.90;58.60
21271;DHT22;10795;50.796;3.860;2024-03-23T09:31:08;12.00;64.30
21271;DHT22;10795;50.796;3.860;2024-03-23T09:33:35;13.20;99.90
21271;DHT22;10795;50.796;3.860;2024-03-23T09:36:05;12.90;83.70
21271;DHT22;10795;50.796;3.860;2024-03-23T09:38:31;12.70;99.90
21271;DHT22;10795;50.796;3.860;2024-03-23T09:40:57;11.90;99.90
21271;DHT22;10795;50.796;3.860;2024-03-23T09:43:23;12.10;85.00
21271;DHT22;10795;50.796;3.860;2024-03-23T09:45:49;11.90;99.90
21271;DHT22;10795;50.796;3.860;2024-03-23T09:48:15;11.10;99.40
21271;DHT22;10795;50.796;3.860;2024-03-23T09:50:43;10.80;99.90
21271;DHT22;10795;50.796;3.860;2024-03-23T09:53:14;10.30;99.90
21271;DHT22;10795;50.796;3.860;2024-03-23T09:55:41;10.70;99.90
21271;DHT22;10795;50.796;3.860;2024-03-23T09:58:12;10.00;99.90
21271;DHT22;10795;50.796;3.860;2024-03-23T10:00:39;10.20;99.90
21271;DHT22;10795;50.796;3.860;2024-03-23T10:03:05;10.80;99.90
21271;DHT22;10795;50.796;3.860;2024-03-23T10:05:32;10.40;98.50
21271;DHT22;10795;50.796;3.860;2024-03-23T10:10:44;9.70;99.90
21271;DHT22;10795;50.796;3.860;2024-03-23T10:13:11;10.50;99.90
21271;DHT22;10795;50.796;3.860;2024-03-23T10:15:55;11.00;99.90
21271;DHT22;10795;50.796;3.860;2024-03-23T10:18:22;11.60;92.50
21271;DHT22;10795;50.796;3.860;2024-03-23T10:23:33;11.40;96.80
21271;DHT22;10795;50.796;3.860;2024-03-23T10:28:56;12.40;30.00
21271;DHT22;10795;50.796;3.860;2024-03-23T10:31:25;12.20;99.50
21271;DHT22;10795;50.796;3.860;2024-03-23T10:33:55;12.20;90.30
21271;DHT22;10795;50.796;3.860;2024-03-23T10:36:25;12.20;92.90
21271;DHT22;10795;50.796;3.860;2024-03-23T10:38:54;12.10;66.50
21271;DHT22;10795;50.796;3.860;2024-03-23T10:41:20;12.40;99.90
21271;DHT22;10795;50.796;3.860;2024-03-23T10:43:49;12.10;92.10
21271;DHT22;10795;50.796;3.860;2024-03-23T10:46:17;11.50;56.60
21271;DHT22;10795;50.796;3.860;2024-03-23T10:48:45;11.50;19.70
21271;DHT22;10795;50.796;3.860;2024-03-23T10:51:11;11.90;26.50
21271;DHT22;10795;50.796;3.860;2024-03-23T10:53:37;11.40;40.00
21271;DHT22;10795;50.796;3.860;2024-03-23T10:56:07;11.80;99.90
21271;DHT22;10795;50.796;3.860;2024-03-23T10:58:41;11.80;56.50
21271;DHT22;10795;50.796;3.860;2024-03-23T11:01:14;11.50;99.90
21271;DHT22;10795;50.796;3.860;2024-03-23T11:03:44;11.40;99.90
21271;DHT22;10795;50.796;3.860;2024-03-23T11:06:10;10.70;99.90
21271;DHT22;10795;50.796;3.860;2024-03-23T11:08:59;11.20;99.90
21271;DHT22;10795;50.796;3.860;2024-03-23T11:11:24;11.60;99.00
21271;DHT22;10795;50.796;3.860;2024-03-23T11:13:55;11.30;99.90
21271;DHT22;10795;50.796;3.860;2024-03-23T11:16:28;10.70;99.90
21271;DHT22;10795;50.796;3.860;2024-03-23T11:19:34;11.10;99.90
21271;DHT22;10795;50.796;3.860;2024-03-23T11:22:04;11.50;83.10
21271;DHT22;10795;50.796;3.860;2024-03-23T11:24:38;11.40;88.30
21271;DHT22;10795;50.796;3.860;2024-03-23T11:27:22;11.70;99.90
21271;DHT22;10795;50.796;3.860;2024-03-23T11:32:50;10.90;1.00
21271;DHT22;10795;50.796;3.860;2024-03-23T11:35:35;9.90;48.20
21271;DHT22;10795;50.796;3.860;2024-03-23T11:38:47;9.90;65.00
21271;DHT22;10795;50.796;3.860;2024-03-23T11:41:12;10.30;1.00
21271;DHT22;10795;50.796;3.860;2024-03-23T11:43:38;10.70;25.60
21271;DHT22;10795;50.796;3.860;2024-03-23T11:46:04;10.40;1.00
21271;DHT22;10795;50.796;3.860;2024-03-23T11:48:32;9.90;1.00
21271;DHT22;10795;50.796;3.860;2024-03-23T11:50:58;10.00;54.20
21271;DHT22;10795;50.796;3.860;2024-03-23T11:53:26;9.90;1.00
21271;DHT22;10795;50.796;3.860;2024-03-23T11:55:55;9.30;5.60
21271;DHT22;10795;50.796;3.860;2024-03-23T11:58:22;10.10;99.90
21271;DHT22;10795;50.796;3.860;2024-03-23T12:03:19;11.00;99.90
21271;DHT22;10795;50.796;3.860;2024-03-23T12:06:03;11.00;55.20
21271;DHT22;10795;50.796;3.860;2024-03-23T12:08:34;11.10;1.00
21271;DHT22;10795;50.796;3.860;2024-03-23T12:14:03;11.30;1.00
21271;DHT22;10795;50.796;3.860;2024-03-23T12:16:35;11.20;1.00
21271;DHT22;10795;50.796;3.860;2024-03-23T12:19:05;11.10;1.00
21271;DHT22;10795;50.796;3.860;2024-03-23T12:21:31;11.10;1.00
21271;DHT22;10795;50.796;3.860;2024-03-23T12:23:59;11.00;43.10
21271;DHT22;10795;50.796;3.860;2024-03-23T12:26:26;11.20;1.00
21271;DHT22;10795;50.796;3.860;2024-03-23T12:28:56;10.50;1.00
21271;DHT22;10795;50.796;3.860;2024-03-23T12:31:24;9.70;71.70
21271;DHT22;10795;50.796;3.860;2024-03-23T12:33:55;10.10;80.40
21271;DHT22;10795;50.796;3.860;2024-03-23T12:36:20;10.60;65.70
21271;DHT22;10795;50.796;3.860;2024-03-23T12:38:48;10.80;1.00
21271;DHT22;10795;50.796;3.860;2024-03-23T12:41:14;11.20;73.00
21271;DHT22;10795;50.796;3.860;2024-03-23T12:43:40;11.30;1.00
21271;DHT22;10795;50.796;3.860;2024-03-23T12:46:06;10.90;1.80
21271;DHT22;10795;50.796;3.860;2024-03-23T12:48:33;10.90;66.80
21271;DHT22;10795;50.796;3.860;2024-03-23T12:50:59;11.60;83.50
21271;DHT22;10795;50.796;3.860;2024-03-23T12:53:25;11.40;37.20
21271;DHT22;10795;50.796;3.860;2024-03-23T12:55:50;11.10;41.70
21271;DHT22;10795;50.796;3.860;2024-03-23T12:58:18;10.80;17.00
21271;DHT22;10795;50.796;3.860;2024-03-23T13:00:44;10.90;11.60
21271;DHT22;10795;50.796;3.860;2024-03-23T13:03:13;11.00;1.00
21271;DHT22;10795;50.796;3.860;2024-03-23T13:05:41;11.00;1.00
21271;DHT22;10795;50.796;3.860;2024-03-23T13:08:06;11.20;61.30
21271;DHT22;10795;50.796;3.860;2024-03-23T13:10:33;11.10;1.00
21271;DHT22;10795;50.796;3.860;2024-03-23T13:12:58;11.00;17.20
21271;DHT22;10795;50.796;3.860;2024-03-23T13:15:27;10.60;1.00
21271;DHT22;10795;50.796;3.860;2024-03-23T13:17:52;10.70;44.30
21271;DHT22;10795;50.796;3.860;2024-03-23T13:20:19;10.50;1.00
21271;DHT22;10795;50.796;3.860;2024-03-23T13:22:45;10.50;36.10
21271;DHT22;10795;50.796;3.860;2024-03-23T13:25:13;10.90;1.00
21271;DHT22;10795;50.796;3.860;2024-03-23T13:27:41;10.70;75.00
21271;DHT22;10795;50.796;3.860;2024-03-23T13:30:10;10.40;1.00
21271;DHT22;10795;50.796;3.860;2024-03-23T13:32:59;9.90;1.00
21271;DHT22;10795;50.796;3.860;2024-03-23T13:35:37;9.70;1.00
21271;DHT22;10795;50.796;3.860;2024-03-23T13:38:06;9.80;1.00
21271;DHT22;10795;50.796;3.860;2024-03-23T13:41:12;9.60;1.00
21271;DHT22;10795;50.796;3.860;2024-03-23T13:43:46;9.70;23.20
21271;DHT22;10795;50.796;3.860;2024-03-23T13:46:12;10.10;8.20
21271;DHT22;10795;50.796;3.860;2024-03-23T13:48:43;10.30;1.00
21271;DHT22;10795;50.796;3.860;2024-03-23T13:51:27;10.50;1.00
21271;DHT22;10795;50.796;3.860;2024-03-23T13:54:10;10.90;1.00
21271;DHT22;10795;50.796;3.860;2024-03-23T13:56:37;11.30;52.80
21271;DHT22;10795;50.796;3.860;2024-03-23T13:59:07;11.30;1.00
21271;DHT22;10795;50.796;3.860;2024-03-23T14:01:37;11.30;1.00
21271;DHT22;10795;50.796;3.860;2024-03-23T14:04:03;11.10;1.00
21271;DHT22;10795;50.796;3.860;2024-03-23T14:06:28;11.10;1.00
21271;DHT22;10795;50.796;3.860;2024-03-23T14:08:54;11.00;1.00
21271;DHT22;10795;50.796;3.860;2024-03-23T14:11:20;11.00;40.10
21271;DHT22;10795;50.796;3.860;2024-03-23T14:13:46;11.40;1.00
21271;DHT22;10795;50.796;3.860;2024-03-23T14:16:11;11.50;1.00
21271;DHT22;10795;50.796;3.860;2024-03-23T14:18:39;11.50;1.00
21271;DHT22;10795;50.796;3.860;2024-03-23T14:21:05;11.30;1.00
21271;DHT22;10795;50.796;3.860;2024-03-23T14:23:32;11.30;1.00
21271;DHT22;10795;50.796;3.860;2024-03-23T14:26:01;11.10;1.00
21271;DHT22;10795;50.796;3.860;2024-03-23T14:28:29;11.40;21.40
21271;DHT22;10795;50.796;3.860;2024-03-23T14:31:00;11.40;1.00
21271;DHT22;10795;50.796;3.860;2024-03-23T14:33:26;11.30;1.00
21271;DHT22;10795;50.796;3.860;2024-03-23T14:35:56;11.20;19.60
21271;DHT22;10795;50.796;3.860;2024-03-23T14:38:25;11.90;1.00
21271;DHT22;10795;50.796;3.860;2024-03-23T14:40:51;12.20;36.40
21271;DHT22;10795;50.796;3.860;2024-03-23T14:43:22;12.10;1.00
21271;DHT22;10795;50.796;3.860;2024-03-23T14:46:12;12.20;99.90
21271;DHT22;10795;50.796;3.860;2024-03-23T14:48:42;12.30;99.90
21271;DHT22;10795;50.796;3.860;2024-03-23T14:51:13;12.20;1.00
21271;DHT22;10795;50.796;3.860;2024-03-23T14:53:41;12.30;99.90
21271;DHT22;10795;50.796;3.860;2024-03-23T14:56:08;12.40;1.00
21271;DHT22;10795;50.796;3.860;2024-03-23T14:58:34;12.40;99.90
21271;DHT22;10795;50.796;3.860;2024-03-23T15:01:02;12.20;99.90
21271;DHT22;10795;50.796;3.860;2024-03-23T15:03:28;11.90;99.90
21271;DHT22;10795;50.796;3.860;2024-03-23T15:05:57;11.80;1.00
21271;DHT22;10795;50.796;3.860;2024-03-23T15:08:24;11.80;1.00
21271;DHT22;10795;50.796;3.860;2024-03-23T15:10:52;11.70;1.00
21271;DHT22;10795;50.796;3.860;2024-03-23T15:13:20;12.00;1.00
21271;DHT22;10795;50.796;3.860;2024-03-23T15:15:48;11.70;99.90
21271;DHT22;10795;50.796;3.860;2024-03-23T15:18:17;11.80;1.00
21271;DHT22;10795;50.796;3.860;2024-03-23T15:20:57;11.80;77.50
21271;DHT22;10795;50.796;3.860;2024-03-23T15:23:26;11.50;1.00
21271;DHT22;10795;50.796;3.860;2024-03-23T15:25:55;11.80;99.90
21271;DHT22;10795;50.796;3.860;2024-03-23T15:28:23;12.10;1.00
21271;DHT22;10795;50.796;3.860;2024-03-23T15:30:52;11.70;99.90
21271;DHT22;10795;50.796;3.860;2024-03-23T15:33:18;11.80;99.90
21271;DHT22;10795;50.796;3.860;2024-03-23T15:35:44;11.80;1.00
21271;DHT22;10795;50.796;3.860;2024-03-23T15:38:15;12.20;1.00
21271;DHT22;10795;50.796;3.860;2024-03-23T15:40:40;11.60;1.00
21271;DHT22;10795;50.796;3.860;2024-03-23T15:43:06;11.50;99.90
21271;DHT22;10795;50.796;3.860;2024-03-23T15:45:32;11.50;1.00
21271;DHT22;10795;50.796;3.860;2024-03-23T15:47:58;10.90;1.00
21271;DHT22;10795;50.796;3.860;2024-03-23T15:50:23;11.20;99.90
21271;DHT22;10795;50.796;3.860;2024-03-23T15:52:52;11.40;1.00
21271;DHT22;10795;50.796;3.860;2024-03-23T15:55:20;11.40;1.00
21271;DHT22;10795;50.796;3.860;2024-03-23T15:57:49;11.50;1.00
21271;DHT22;10795;50.796;3.860;2024-03-23T16:00:17;11.40;60.20
21271;DHT22;10795;50.796;3.860;2024-03-23T16:02:44;11.20;1.00
21271;DHT22;10795;50.796;3.860;2024-03-23T16:05:11;11.20;1.00
21271;DHT22;10795;50.796;3.860;2024-03-23T16:07:37;11.00;22.00
21271;DHT22;10795;50.796;3.860;2024-03-23T16:10:05;10.90;1.00
21271;DHT22;10795;50.796;3.860;2024-03-23T16:12:34;11.20;1.00
21271;DHT22;10795;50.796;3.860;2024-03-23T16:15:03;11.10;12.50
21271;DHT22;10795;50.796;3.860;2024-03-23T16:17:28;10.50;1.00
21271;DHT22;10795;50.796;3.860;2024-03-23T16:20:01;10.80;1.00
21271;DHT22;10795;50.796;3.860;2024-03-23T16:22:30;11.00;1.00
21271;DHT22;10795;50.796;3.860;2024-03-23T16:24:58;11.30;99.90
21271;DHT22;10795;50.796;3.860;2024-03-23T16:27:24;11.20;1.00
21271;DHT22;10795;50.796;3.860;2024-03-23T16:29:52;11.20;37.00
21271;DHT22;10795;50.796;3.860;2024-03-23T16:32:17;11.30;1.00
21271;DHT22;10795;50.796;3.860;2024-03-23T16:34:46;11.10;99.90
21271;DHT22;10795;50.796;3.860;2024-03-23T16:37:14;11.10;1.00
21271;DHT22;10795;50.796;3.860;2024-03-23T16:39:40;11.00;99.90
21271;DHT22;10795;50.796;3.860;2024-03-23T16:42:05;11.20;1.00
21271;DHT22;10795;50.796;3.860;2024-03-23T16:44:31;11.30;1.00
21271;DHT22;10795;50.796;3.860;2024-03-23T16:46:57;11.20;99.90
21271;DHT22;10795;50.796;3.860;2024-03-23T16:49:25;11.00;99.90
21271;DHT22;10795;50.796;3.860;2024-03-23T16:51:51;10.90;1.00
21271;DHT22;10795;50.796;3.860;2024-03-23T16:54:17;11.20;1.00
21271;DHT22;10795;50.796;3.860;2024-03-23T16:56:42;10.90;1.00